Time;durP1;ratioP1;P1;durP2;ratioP2;P2;SDS_P1;SDS_P2;PMS_P1;PMS_P2;Temp;Humidity;BMP_temperature;BMP_pressure;BME280_temperature;BME280_humidity;BME280_pressure;Samples;Min_cycle;Max_cycle;Signal;HPM_P1;HPM_P2
2021/08/12 00:00:38;;;;;;;;;10.00;9.00;;;;;;;;5064525;28;45469;-81
2021/08/12 00:03:04;;;;;;;;;11.00;10.00;;;;;;;;5065785;28;45458;-80
2021/08/12 00:05:29;;;;;;;;;11.33;9.00;;;;;;;;5055160;27;46036;-80
2021/08/12 00:07:54;;;;;;;;;11.33;11.33;;;;;;;;5064967;28;45476;-80
2021/08/12 00:10:19;;;;;;;;;11.33;10.33;;;;;;;;5057477;28;45325;-80
2021/08/12 00:12:44;;;;;;;;;9.00;9.00;;;;;;;;5060700;28;45490;-80
2021/08/12 00:15:10;;;;;;;;;10.00;10.00;;;;;;;;5038702;28;46218;-81
2021/08/12 00:17:35;;;;;;;;;10.00;10.00;;;;;;;;5067037;28;45733;-81
2021/08/12 00:20:01;;;;;;;;;11.50;11.00;;;;;;;;5041813;28;45422;-81
2021/08/12 00:22:26;;;;;;;;;11.50;10.00;;;;;;;;5059640;28;45502;-80
2021/08/12 00:24:51;;;;;;;;;12.33;10.33;;;;;;;;5059691;28;45461;-80
2021/08/12 00:27:16;;;;;;;;;8.67;8.67;;;;;;;;5068485;28;45524;-80
2021/08/12 00:29:41;;;;;;;;;15.00;11.00;;;;;;;;5063645;28;45517;-80
2021/08/12 00:32:07;;;;;;;;;14.00;12.00;;;;;;;;5060690;28;45462;-79
2021/08/12 00:34:32;;;;;;;;;14.67;11.00;;;;;;;;5061902;28;45504;-80
2021/08/12 00:36:57;;;;;;;;;14.00;11.67;;;;;;;;5058343;28;45430;-80
2021/08/12 00:39:22;;;;;;;;;11.00;9.67;;;;;;;;5052645;27;45486;-81
2021/08/12 00:41:48;;;;;;;;;17.33;12.67;;;;;;;;5061381;28;45249;-79
2021/08/12 00:44:13;;;;;;;;;10.33;10.00;;;;;;;;5066480;28;46376;-80
2021/08/12 00:46:38;;;;;;;;;10.00;10.00;;;;;;;;5060985;28;45750;-79
2021/08/12 00:49:03;;;;;;;;;10.33;8.00;;;;;;;;5063196;28;45403;-81
2021/08/12 00:51:29;;;;;;;;;13.50;12.00;;;;;;;;5069183;28;45726;-80
2021/08/12 00:53:54;;;;;;;;;12.50;10.25;;;;;;;;5059787;28;46137;-80
2021/08/12 00:56:19;;;;;;;;;14.00;13.00;;;;;;;;5067632;27;45573;-78
2021/08/12 00:58:45;;;;;;;;;13.00;10.25;;;;;;;;5068266;27;45512;-80
2021/08/12 01:01:10;;;;;;;;;13.00;12.00;;;;;;;;5061642;28;45552;-79
2021/08/12 01:03:35;;;;;;;;;10.00;9.33;;;;;;;;5071385;28;46632;-80
2021/08/12 01:06:00;;;;;;;;;11.33;9.00;;;;;;;;5067749;27;45452;-80
2021/08/12 01:08:44;;;;;;;;;12.00;11.50;;;;;;;;5064604;27;45560;-80
2021/08/12 01:11:31;;;;;;;;;10.75;9.25;;;;;;;;5063910;28;45382;-78
2021/08/12 01:14:13;;;;;;;;;15.25;12.50;;;;;;;;5051816;28;46613;-79
2021/08/12 01:16:48;;;;;;;;;13.50;10.50;;;;;;;;5061843;28;45787;-80
2021/08/12 01:19:27;;;;;;;;;11.25;9.25;;;;;;;;5070210;28;45426;-79
2021/08/12 01:21:57;;;;;;;;;11.00;10.50;;;;;;;;5053130;28;45547;-81
2021/08/12 01:24:24;;;;;;;;;12.75;10.25;;;;;;;;5052378;27;46597;-81
2021/08/12 01:26:52;;;;;;;;;13.50;11.00;;;;;;;;5059041;28;45501;-81
2021/08/12 01:29:25;;;;;;;;;11.75;10.25;;;;;;;;5070363;27;45666;-81
2021/08/12 01:32:09;;;;;;;;;13.50;12.75;;;;;;;;5051622;27;45570;-81
2021/08/12 01:34:49;;;;;;;;;11.00;10.00;;;;;;;;5054058;27;46746;-80
2021/08/12 01:37:15;;;;;;;;;13.50;11.25;;;;;;;;5059612;28;45534;-82
2021/08/12 01:39:44;;;;;;;;;12.25;9.00;;;;;;;;5055602;28;45324;-81
2021/08/12 01:42:12;;;;;;;;;13.00;12.00;;;;;;;;5064826;28;45542;-81
2021/08/12 01:44:37;;;;;;;;;11.25;10.75;;;;;;;;5061016;28;46214;-81
2021/08/12 01:47:04;;;;;;;;;13.75;10.50;;;;;;;;5065524;28;45555;-82
2021/08/12 01:49:29;;;;;;;;;14.25;10.50;;;;;;;;5069460;27;45565;-81
2021/08/12 01:51:55;;;;;;;;;12.00;10.25;;;;;;;;5070890;28;45639;-81
2021/08/12 01:54:20;;;;;;;;;9.75;9.75;;;;;;;;5070387;28;46078;-80
2021/08/12 01:56:45;;;;;;;;;11.50;9.25;;;;;;;;5068599;27;45565;-81
2021/08/12 01:59:11;;;;;;;;;14.67;9.67;;;;;;;;5065615;27;45367;-80
2021/08/12 02:01:37;;;;;;;;;11.00;11.00;;;;;;;;5069248;27;45525;-81
2021/08/12 02:04:03;;;;;;;;;13.50;12.00;;;;;;;;5060459;27;45706;-81
2021/08/12 02:06:33;;;;;;;;;12.00;9.00;;;;;;;;5063248;27;45584;-81
2021/08/12 02:08:58;;;;;;;;;11.00;10.00;;;;;;;;5074777;27;45417;-82
2021/08/12 02:11:23;;;;;;;;;13.67;11.00;;;;;;;;5066374;28;45355;-82
2021/08/12 02:13:49;;;;;;;;;11.33;9.33;;;;;;;;5059707;27;45512;-81
2021/08/12 02:16:14;;;;;;;;;10.50;9.50;;;;;;;;5065922;27;45419;-80
2021/08/12 02:18:40;;;;;;;;;10.67;9.00;;;;;;;;5065994;28;45512;-79
2021/08/12 02:21:08;;;;;;;;;12.00;9.50;;;;;;;;5064724;28;45501;-82
2021/08/12 02:23:34;;;;;;;;;10.50;9.00;;;;;;;;5062959;28;48458;-81
2021/08/12 02:26:05;;;;;;;;;11.25;9.50;;;;;;;;5060304;28;45874;-80
2021/08/12 02:28:31;;;;;;;;;9.00;9.00;;;;;;;;5061453;28;45498;-82
2021/08/12 02:30:57;;;;;;;;;12.00;11.00;;;;;;;;5065315;28;45636;-81
2021/08/12 02:33:26;;;;;;;;;10.25;8.00;;;;;;;;5066397;28;46596;-82
2021/08/12 02:35:51;;;;;;;;;12.50;11.00;;;;;;;;5069004;28;45755;-83
2021/08/12 02:38:17;;;;;;;;;11.00;9.33;;;;;;;;5065979;27;45327;-82
2021/08/12 02:40:43;;;;;;;;;10.75;9.00;;;;;;;;5063634;28;45556;-82
2021/08/12 02:43:09;;;;;;;;;8.50;8.50;;;;;;;;5065290;27;46164;-82
2021/08/12 02:45:37;;;;;;;;;10.25;10.00;;;;;;;;5067769;28;45342;-82
2021/08/12 02:48:03;;;;;;;;;10.50;9.75;;;;;;;;5068704;27;45477;-82
2021/08/12 02:50:29;;;;;;;;;9.75;8.00;;;;;;;;5064810;28;45435;-83
2021/08/12 02:52:54;;;;;;;;;12.50;11.00;;;;;;;;5061503;27;45792;-80
2021/08/12 02:55:21;;;;;;;;;8.00;8.00;;;;;;;;5067554;27;45378;-79
2021/08/12 02:57:46;;;;;;;;;8.00;7.75;;;;;;;;5058128;28;45587;-80
2021/08/12 03:00:12;;;;;;;;;12.33;10.00;;;;;;;;5068018;28;45474;-80
2021/08/12 03:02:39;;;;;;;;;10.00;9.75;;;;;;;;5069326;28;46378;-80
2021/08/12 03:05:04;;;;;;;;;10.25;9.00;;;;;;;;5046930;27;45652;-81
2021/08/12 03:07:31;;;;;;;;;7.75;7.00;;;;;;;;5066804;27;45560;-82
2021/08/12 03:09:58;;;;;;;;;11.75;9.50;;;;;;;;5072900;27;45478;-82
2021/08/12 03:12:24;;;;;;;;;9.00;9.00;;;;;;;;5058364;27;45581;-82
2021/08/12 03:14:50;;;;;;;;;10.00;8.00;;;;;;;;5069100;28;45487;-83
2021/08/12 03:17:16;;;;;;;;;11.00;9.75;;;;;;;;5048658;28;45391;-82
2021/08/12 03:19:42;;;;;;;;;8.50;8.50;;;;;;;;5061705;28;45541;-83
2021/08/12 03:22:09;;;;;;;;;12.75;9.50;;;;;;;;5066964;28;46608;-79
2021/08/12 03:24:36;;;;;;;;;10.00;8.25;;;;;;;;5066599;28;45877;-82
2021/08/12 03:27:01;;;;;;;;;9.50;9.00;;;;;;;;5068238;28;45447;-82
2021/08/12 03:29:27;;;;;;;;;11.00;8.75;;;;;;;;5061201;28;45463;-83
2021/08/12 03:31:52;;;;;;;;;10.00;8.00;;;;;;;;5061120;28;45993;-81
2021/08/12 03:34:17;;;;;;;;;11.50;10.50;;;;;;;;5067869;28;45389;-82
2021/08/12 03:36:43;;;;;;;;;13.25;10.25;;;;;;;;5065044;28;45883;-82
2021/08/12 03:39:08;;;;;;;;;10.25;10.00;;;;;;;;5060420;27;45425;-82
2021/08/12 03:41:33;;;;;;;;;8.00;7.50;;;;;;;;5066692;28;46157;-82
2021/08/12 03:43:59;;;;;;;;;12.67;9.33;;;;;;;;5065048;28;45355;-81
2021/08/12 03:46:24;;;;;;;;;15.00;8.75;;;;;;;;5062618;28;45566;-82
2021/08/12 03:48:49;;;;;;;;;10.25;9.50;;;;;;;;5067733;28;45693;-82
2021/08/12 03:51:14;;;;;;;;;14.33;11.67;;;;;;;;5063452;27;45837;-82
2021/08/12 03:53:39;;;;;;;;;13.67;10.00;;;;;;;;5067393;28;45391;-82
2021/08/12 03:56:05;;;;;;;;;11.00;9.33;;;;;;;;5074506;27;45516;-83
2021/08/12 03:58:32;;;;;;;;;10.67;10.00;;;;;;;;5065289;28;45419;-81
2021/08/12 04:00:57;;;;;;;;;10.75;10.25;;;;;;;;5064066;28;46405;-82
2021/08/12 04:03:22;;;;;;;;;9.00;8.75;;;;;;;;5068958;27;45763;-82
2021/08/12 04:05:48;;;;;;;;;13.75;11.50;;;;;;;;5048234;28;45517;-82
2021/08/12 04:08:13;;;;;;;;;12.33;11.00;;;;;;;;5066492;28;45454;-83
2021/08/12 04:10:39;;;;;;;;;12.67;9.00;;;;;;;;5061591;28;46069;-82
2021/08/12 04:13:04;;;;;;;;;10.00;8.50;;;;;;;;5059245;27;45556;-82
2021/08/12 04:15:29;;;;;;;;;9.00;8.67;;;;;;;;5065486;28;45513;-82
2021/08/12 04:17:54;;;;;;;;;10.00;10.00;;;;;;;;5067569;28;45435;-81
2021/08/12 04:20:19;;;;;;;;;8.00;6.33;;;;;;;;5065388;28;45357;-82
2021/08/12 04:22:45;;;;;;;;;13.00;10.25;;;;;;;;5063261;27;45425;-82
2021/08/12 04:25:11;;;;;;;;;9.00;9.00;;;;;;;;5059761;28;45589;-82
2021/08/12 04:27:37;;;;;;;;;10.00;8.75;;;;;;;;5069639;27;46034;-83
2021/08/12 04:30:03;;;;;;;;;9.75;9.00;;;;;;;;5047350;27;48338;-78
2021/08/12 04:32:28;;;;;;;;;12.00;8.75;;;;;;;;5053721;28;45411;-82
2021/08/12 04:34:53;;;;;;;;;10.33;9.00;;;;;;;;5048826;28;45304;-81
2021/08/12 04:37:18;;;;;;;;;9.67;8.67;;;;;;;;5070666;28;45584;-84
2021/08/12 04:39:43;;;;;;;;;10.00;10.00;;;;;;;;5073020;28;45692;-81
2021/08/12 04:42:09;;;;;;;;;11.00;10.00;;;;;;;;5069824;28;45741;-82
2021/08/12 04:44:34;;;;;;;;;17.00;11.00;;;;;;;;5073769;28;47019;-83
2021/08/12 04:46:59;;;;;;;;;11.00;10.00;;;;;;;;5067190;28;45632;-83
2021/08/12 04:49:24;;;;;;;;;12.00;9.67;;;;;;;;5066876;27;45310;-83
2021/08/12 04:51:49;;;;;;;;;11.33;8.33;;;;;;;;5057211;27;45455;-80
2021/08/12 04:54:16;;;;;;;;;9.33;9.33;;;;;;;;5072503;27;45481;-82
2021/08/12 04:56:41;;;;;;;;;14.25;12.50;;;;;;;;5068330;28;45427;-83
2021/08/12 04:59:06;;;;;;;;;12.00;10.00;;;;;;;;5067153;28;45660;-83
2021/08/12 05:01:32;;;;;;;;;11.00;11.00;;;;;;;;5046378;28;46011;-82
2021/08/12 05:03:57;;;;;;;;;13.67;10.00;;;;;;;;5072348;28;45407;-83
2021/08/12 05:06:22;;;;;;;;;11.00;9.50;;;;;;;;5065591;28;45534;-83
2021/08/12 05:08:47;;;;;;;;;11.67;10.00;;;;;;;;5070425;27;45706;-82
2021/08/12 05:11:15;;;;;;;;;10.33;9.33;;;;;;;;5065786;28;45399;-84
2021/08/12 05:13:41;;;;;;;;;9.75;8.75;;;;;;;;5048647;28;45488;-84
2021/08/12 05:16:06;;;;;;;;;14.67;11.67;;;;;;;;5071749;28;45503;-83
2021/08/12 05:18:31;;;;;;;;;10.00;10.00;;;;;;;;5059593;28;48467;-82
2021/08/12 05:20:56;;;;;;;;;8.00;7.00;;;;;;;;5070597;27;45416;-83
2021/08/12 05:23:21;;;;;;;;;10.00;10.00;;;;;;;;5065802;28;45569;-82
2021/08/12 05:25:47;;;;;;;;;11.00;8.67;;;;;;;;5064122;27;45465;-83
2021/08/12 05:28:12;;;;;;;;;14.67;9.33;;;;;;;;5062307;28;45810;-83
2021/08/12 05:30:37;;;;;;;;;7.75;7.00;;;;;;;;5067853;27;45421;-83
2021/08/12 05:33:03;;;;;;;;;12.25;10.75;;;;;;;;5070637;28;45691;-83
2021/08/12 05:35:28;;;;;;;;;8.00;8.00;;;;;;;;5066357;28;45386;-85
2021/08/12 05:37:53;;;;;;;;;11.67;10.67;;;;;;;;5066559;28;46323;-85
2021/08/12 05:40:18;;;;;;;;;10.33;9.67;;;;;;;;5069425;28;45511;-84
2021/08/12 05:42:43;;;;;;;;;12.00;10.00;;;;;;;;5051307;28;45728;-83
2021/08/12 05:45:09;;;;;;;;;10.00;9.00;;;;;;;;5070015;28;45545;-83
2021/08/12 05:47:34;;;;;;;;;10.33;8.67;;;;;;;;5067871;28;45901;-83
2021/08/12 05:49:59;;;;;;;;;12.00;10.67;;;;;;;;5066457;28;45481;-86
2021/08/12 05:52:24;;;;;;;;;11.00;11.00;;;;;;;;5067680;28;45705;-83
2021/08/12 05:54:50;;;;;;;;;12.00;11.00;;;;;;;;5054735;28;45694;-84
2021/08/12 05:57:15;;;;;;;;;11.33;10.67;;;;;;;;5067760;28;45743;-80
2021/08/12 05:59:40;;;;;;;;;13.67;11.00;;;;;;;;5042139;28;45486;-81
2021/08/12 06:02:05;;;;;;;;;15.00;10.67;;;;;;;;5056418;28;46734;-84
2021/08/12 06:04:30;;;;;;;;;10.33;9.00;;;;;;;;5063096;27;45512;-86
2021/08/12 06:06:56;;;;;;;;;16.67;12.00;;;;;;;;5059443;27;45419;-85
2021/08/12 06:09:21;;;;;;;;;11.33;8.33;;;;;;;;5065900;28;45319;-85
2021/08/12 06:11:46;;;;;;;;;9.33;8.00;;;;;;;;5057306;28;45474;-86
2021/08/12 06:14:11;;;;;;;;;10.00;9.25;;;;;;;;5061706;28;45451;-86
2021/08/12 06:16:37;;;;;;;;;10.00;10.00;;;;;;;;5069325;28;45367;-86
2021/08/12 06:19:02;;;;;;;;;12.67;9.67;;;;;;;;5065713;28;45488;-85
2021/08/12 06:21:27;;;;;;;;;11.67;11.67;;;;;;;;5056587;28;45412;-84
2021/08/12 06:23:53;;;;;;;;;12.67;11.00;;;;;;;;5066020;28;45552;-84
2021/08/12 06:26:18;;;;;;;;;11.00;9.75;;;;;;;;5065613;28;45481;-86
2021/08/12 06:28:45;;;;;;;;;11.25;10.00;;;;;;;;5042627;28;45488;-86
2021/08/12 06:31:10;;;;;;;;;10.75;9.00;;;;;;;;5069101;28;45390;-85
2021/08/12 06:33:35;;;;;;;;;11.00;10.00;;;;;;;;5049646;28;45536;-85
2021/08/12 06:36:01;;;;;;;;;14.00;10.00;;;;;;;;5065911;27;45610;-84
2021/08/12 06:38:26;;;;;;;;;12.67;12.00;;;;;;;;5071563;28;45454;-85
2021/08/12 06:40:51;;;;;;;;;11.75;10.75;;;;;;;;5066409;27;45487;-85
2021/08/12 06:43:17;;;;;;;;;13.33;10.00;;;;;;;;5049558;28;45370;-85
2021/08/12 06:45:44;;;;;;;;;10.33;10.00;;;;;;;;5065325;27;46263;-86
2021/08/12 06:48:09;;;;;;;;;13.00;10.75;;;;;;;;5065004;28;45537;-86
2021/08/12 06:50:34;;;;;;;;;10.00;9.33;;;;;;;;5065989;27;46756;-86
2021/08/12 06:52:59;;;;;;;;;9.00;8.67;;;;;;;;5065298;28;45502;-86
2021/08/12 06:55:25;;;;;;;;;11.67;10.33;;;;;;;;5065133;28;46377;-85
2021/08/12 06:57:50;;;;;;;;;12.33;11.67;;;;;;;;5060403;28;45524;-86
2021/08/12 07:00:16;;;;;;;;;10.00;10.00;;;;;;;;5046900;28;45573;-86
2021/08/12 07:02:42;;;;;;;;;11.75;10.00;;;;;;;;5069026;28;45503;-86
2021/08/12 07:05:07;;;;;;;;;14.50;10.00;;;;;;;;5063697;28;45426;-86
2021/08/12 07:07:32;;;;;;;;;10.50;9.50;;;;;;;;5041926;28;45412;-86
2021/08/12 07:09:58;;;;;;;;;8.67;8.67;;;;;;;;5067614;28;45360;-86
2021/08/12 07:12:23;;;;;;;;;13.67;10.33;;;;;;;;5071295;28;45473;-86
2021/08/12 07:14:48;;;;;;;;;10.00;9.33;;;;;;;;5044255;28;45982;-86
2021/08/12 07:17:13;;;;;;;;;9.67;9.00;;;;;;;;5059305;28;45501;-86
2021/08/12 07:19:38;;;;;;;;;12.00;10.67;;;;;;;;5047933;28;45419;-86
2021/08/12 07:22:04;;;;;;;;;11.33;10.00;;;;;;;;5063524;27;45529;-86
2021/08/12 07:24:29;;;;;;;;;9.25;8.00;;;;;;;;5070712;27;46325;-87
2021/08/12 07:26:54;;;;;;;;;8.67;7.67;;;;;;;;5069245;27;45390;-86
2021/08/12 07:29:20;;;;;;;;;8.75;8.50;;;;;;;;5049536;28;45542;-86
2021/08/12 07:31:45;;;;;;;;;10.25;10.25;;;;;;;;5059399;28;45277;-86
2021/08/12 07:34:11;;;;;;;;;13.50;10.00;;;;;;;;5066420;28;45481;-85
2021/08/12 07:36:37;;;;;;;;;11.75;9.25;;;;;;;;5067514;27;45490;-85
2021/08/12 07:39:03;;;;;;;;;13.25;9.50;;;;;;;;5067632;28;45429;-86
2021/08/12 07:41:28;;;;;;;;;12.75;12.00;;;;;;;;5069715;28;45446;-86
2021/08/12 07:43:53;;;;;;;;;12.00;11.00;;;;;;;;5044560;28;47228;-86
2021/08/12 07:46:18;;;;;;;;;12.00;10.00;;;;;;;;5050221;28;45808;-86
2021/08/12 07:48:44;;;;;;;;;9.00;9.00;;;;;;;;5051785;28;45520;-85
2021/08/12 07:51:09;;;;;;;;;13.00;10.00;;;;;;;;5065633;28;45313;-85
2021/08/12 07:53:34;;;;;;;;;10.25;10.25;;;;;;;;5058725;28;46599;-86
2021/08/12 07:56:00;;;;;;;;;10.00;10.00;;;;;;;;5060098;28;45537;-86
2021/08/12 07:58:25;;;;;;;;;12.50;9.50;;;;;;;;5041353;28;45594;-87
2021/08/12 08:00:51;;;;;;;;;10.33;10.33;;;;;;;;5076761;27;45467;-87
2021/08/12 08:03:16;;;;;;;;;11.50;9.00;;;;;;;;5080757;27;46927;-88
2021/08/12 08:05:41;;;;;;;;;11.75;10.75;;;;;;;;5052688;28;45439;-86
2021/08/12 08:08:07;;;;;;;;;14.00;9.00;;;;;;;;5065674;27;46241;-86
2021/08/12 08:10:32;;;;;;;;;11.67;9.00;;;;;;;;5068079;28;45553;-85
2021/08/12 08:12:57;;;;;;;;;14.50;11.00;;;;;;;;5058773;27;47163;-87
2021/08/12 08:15:23;;;;;;;;;10.00;10.00;;;;;;;;5075927;27;45573;-86
2021/08/12 08:17:48;;;;;;;;;9.75;9.50;;;;;;;;5049833;28;45908;-86
2021/08/12 08:20:14;;;;;;;;;12.75;10.50;;;;;;;;5069716;28;45401;-86
2021/08/12 08:22:39;;;;;;;;;16.50;12.00;;;;;;;;5070503;27;46142;-85
2021/08/12 08:25:06;;;;;;;;;15.00;9.75;;;;;;;;5067336;27;45447;-86
2021/08/12 08:27:31;;;;;;;;;11.75;11.00;;;;;;;;5068134;28;46492;-86
2021/08/12 08:29:56;;;;;;;;;10.67;10.67;;;;;;;;5062695;27;46747;-86
2021/08/12 08:32:21;;;;;;;;;13.00;11.33;;;;;;;;5044927;28;48537;-86
2021/08/12 08:34:47;;;;;;;;;12.00;10.00;;;;;;;;5043183;28;45924;-86
2021/08/12 08:37:13;;;;;;;;;16.00;12.25;;;;;;;;5064909;27;48935;-85
2021/08/12 08:39:38;;;;;;;;;10.75;10.50;;;;;;;;5056662;28;45610;-86
2021/08/12 08:42:04;;;;;;;;;12.00;11.00;;;;;;;;5073548;27;45431;-87
2021/08/12 08:44:30;;;;;;;;;12.00;10.00;;;;;;;;5079987;27;45813;-86
2021/08/12 08:46:58;;;;;;;;;15.75;12.25;;;;;;;;5076928;27;45444;-84
2021/08/12 08:49:24;;;;;;;;;10.50;10.50;;;;;;;;5051264;28;45628;-86
2021/08/12 08:51:50;;;;;;;;;14.25;10.75;;;;;;;;5076008;27;46375;-86
2021/08/12 08:54:16;;;;;;;;;13.00;12.00;;;;;;;;5064334;28;45382;-85
2021/08/12 08:56:45;;;;;;;;;10.25;10.25;;;;;;;;5058075;27;45504;-82
2021/08/12 08:59:11;;;;;;;;;10.75;10.25;;;;;;;;5078914;27;45470;-87
2021/08/12 09:01:36;;;;;;;;;16.25;12.75;;;;;;;;5062996;28;46964;-85
2021/08/12 09:04:01;;;;;;;;;12.75;11.00;;;;;;;;5057379;28;45415;-85
2021/08/12 09:06:27;;;;;;;;;10.33;9.67;;;;;;;;5074663;27;45433;-87
2021/08/12 09:08:56;;;;;;;;;9.25;8.75;;;;;;;;5074582;28;45688;-86
2021/08/12 09:11:21;;;;;;;;;12.00;9.25;;;;;;;;5044826;28;46229;-85
2021/08/12 09:13:47;;;;;;;;;11.00;10.25;;;;;;;;5064569;28;45389;-86
2021/08/12 09:16:31;;;;;;;;;13.00;11.00;;;;;;;;5072899;28;45513;-86
2021/08/12 09:19:12;;;;;;;;;13.50;12.50;;;;;;;;5069185;28;45417;-86
2021/08/12 09:21:37;;;;;;;;;9.00;9.00;;;;;;;;5067074;27;46542;-84
2021/08/12 09:24:03;;;;;;;;;10.75;10.00;;;;;;;;5069400;27;45504;-86
2021/08/12 09:26:28;;;;;;;;;12.00;10.00;;;;;;;;5052876;27;45670;-85
2021/08/12 09:28:54;;;;;;;;;11.25;11.00;;;;;;;;5068404;27;45457;-85
2021/08/12 09:31:21;;;;;;;;;11.50;9.75;;;;;;;;5053948;27;50928;-84
2021/08/12 09:33:52;;;;;;;;;11.25;10.50;;;;;;;;5065196;27;45863;-85
2021/08/12 09:36:23;;;;;;;;;11.50;11.25;;;;;;;;5080989;27;45480;-86
2021/08/12 09:39:04;;;;;;;;;14.25;9.75;;;;;;;;5069248;28;45287;-86
2021/08/12 09:41:38;;;;;;;;;7.50;7.25;;;;;;;;5064238;27;45780;-85
2021/08/12 09:44:04;;;;;;;;;7.25;7.00;;;;;;;;5066211;27;45965;-86
2021/08/12 09:46:34;;;;;;;;;11.00;9.50;;;;;;;;5064261;27;45488;-86
2021/08/12 09:48:59;;;;;;;;;10.00;10.00;;;;;;;;5049113;28;45552;-86
2021/08/12 09:51:28;;;;;;;;;13.00;10.00;;;;;;;;5057735;27;46085;-88
2021/08/12 09:54:01;;;;;;;;;11.00;9.00;;;;;;;;5042085;28;45400;-84
2021/08/12 09:56:26;;;;;;;;;11.25;11.25;;;;;;;;5055652;28;45690;-82
2021/08/12 09:58:51;;;;;;;;;10.00;10.00;;;;;;;;5061925;28;45481;-83
2021/08/12 10:01:18;;;;;;;;;11.50;9.75;;;;;;;;5060894;27;46295;-83
2021/08/12 10:03:44;;;;;;;;;14.25;9.25;;;;;;;;5065142;27;45790;-87
2021/08/12 10:06:17;;;;;;;;;11.50;10.75;;;;;;;;5056372;27;45748;-86
2021/08/12 10:08:42;;;;;;;;;9.75;9.75;;;;;;;;5068698;28;45438;-87
2021/08/12 10:11:25;;;;;;;;;11.00;11.00;;;;;;;;5062680;27;45525;-86
2021/08/12 10:14:03;;;;;;;;;9.75;8.50;;;;;;;;5054220;27;45722;-92
2021/08/12 10:16:31;;;;;;;;;12.00;9.00;;;;;;;;5043647;28;45504;-95
2021/08/12 10:18:57;;;;;;;;;11.25;9.25;;;;;;;;5057598;27;45339;-90
2021/08/12 10:21:23;;;;;;;;;12.75;9.00;;;;;;;;5058690;27;45427;-91
2021/08/12 10:23:50;;;;;;;;;13.00;12.00;;;;;;;;5067782;27;45517;-93
2021/08/12 10:26:17;;;;;;;;;9.25;8.75;;;;;;;;5074579;27;45619;-94
2021/08/12 10:28:43;;;;;;;;;11.50;8.50;;;;;;;;5060505;27;45593;-86
2021/08/12 10:31:08;;;;;;;;;15.25;12.00;;;;;;;;5061879;27;45860;-88
2021/08/12 10:33:34;;;;;;;;;13.50;12.75;;;;;;;;5071066;27;45464;-85
2021/08/12 10:36:00;;;;;;;;;14.75;10.00;;;;;;;;5066426;27;45269;-92
2021/08/12 10:38:25;;;;;;;;;8.75;8.75;;;;;;;;5069541;28;45607;-92
2021/08/12 10:40:52;;;;;;;;;14.25;10.00;;;;;;;;5067298;28;45419;-87
2021/08/12 10:43:22;;;;;;;;;14.75;11.00;;;;;;;;5065713;28;45443;-87
2021/08/12 10:45:57;;;;;;;;;12.25;9.75;;;;;;;;5067126;28;45498;-88
2021/08/12 10:48:24;;;;;;;;;9.75;9.75;;;;;;;;5070009;28;45791;-87
2021/08/12 10:50:59;;;;;;;;;14.50;11.00;;;;;;;;5072972;27;45950;-91
2021/08/12 10:53:24;;;;;;;;;8.25;7.75;;;;;;;;5058770;27;45637;-94
2021/08/12 10:55:49;;;;;;;;;9.00;9.00;;;;;;;;5045281;28;45574;-93
2021/08/12 10:58:17;;;;;;;;;8.67;7.67;;;;;;;;5055510;28;45750;-92
2021/08/12 11:00:49;;;;;;;;;11.25;11.00;;;;;;;;5058230;27;46286;-92
2021/08/12 11:03:15;;;;;;;;;11.25;11.00;;;;;;;;5066200;27;45612;-90
2021/08/12 11:05:59;;;;;;;;;9.75;9.75;;;;;;;;5058308;27;45624;-91
2021/08/12 11:08:42;;;;;;;;;12.25;10.50;;;;;;;;5058502;28;45445;-91
2021/08/12 11:11:07;;;;;;;;;11.00;10.00;;;;;;;;5076665;27;45417;-90
2021/08/12 11:13:33;;;;;;;;;11.67;10.67;;;;;;;;5061024;27;45535;-88
2021/08/12 11:15:59;;;;;;;;;12.25;9.50;;;;;;;;5060237;27;45611;-89
2021/08/12 11:18:43;;;;;;;;;11.75;11.50;;;;;;;;5063653;28;45395;-91
2021/08/12 11:21:28;;;;;;;;;13.50;10.00;;;;;;;;5070137;28;46083;-86
2021/08/12 11:23:53;;;;;;;;;10.50;10.00;;;;;;;;5052521;28;45682;-87
2021/08/12 11:26:18;;;;;;;;;11.67;10.67;;;;;;;;5073319;27;45401;-90
2021/08/12 11:28:44;;;;;;;;;10.33;8.67;;;;;;;;5065221;28;45487;-90
2021/08/12 11:31:18;;;;;;;;;12.00;11.00;;;;;;;;5067894;28;46080;-90
2021/08/12 11:33:49;;;;;;;;;11.00;9.25;;;;;;;;5067577;27;45832;-90
2021/08/12 11:36:15;;;;;;;;;10.25;9.50;;;;;;;;5067424;27;45570;-90
2021/08/12 11:38:41;;;;;;;;;10.50;9.25;;;;;;;;5060686;28;45456;-90
2021/08/12 11:41:06;;;;;;;;;13.25;10.75;;;;;;;;5069511;27;46621;-91
2021/08/12 11:43:33;;;;;;;;;10.00;10.00;;;;;;;;5068326;28;45470;-89
2021/08/12 11:46:00;;;;;;;;;8.00;8.00;;;;;;;;5057865;27;45957;-90
2021/08/12 11:48:29;;;;;;;;;11.50;10.00;;;;;;;;5065675;28;45350;-92
2021/08/12 11:50:58;;;;;;;;;12.00;9.25;;;;;;;;5060984;27;46157;-88
2021/08/12 11:53:43;;;;;;;;;9.00;9.00;;;;;;;;5065574;28;45855;-93
2021/08/12 11:56:20;;;;;;;;;11.00;11.00;;;;;;;;5060022;27;45443;-88
2021/08/12 11:58:46;;;;;;;;;9.50;7.50;;;;;;;;5035584;27;46529;-94
2021/08/12 12:01:12;;;;;;;;;13.25;11.00;;;;;;;;5061949;28;45584;-91
2021/08/12 12:03:38;;;;;;;;;10.50;10.50;;;;;;;;5047984;28;46693;-91
2021/08/12 12:06:03;;;;;;;;;9.75;9.75;;;;;;;;5047669;28;45849;-88
2021/08/12 12:08:28;;;;;;;;;12.75;10.50;;;;;;;;5057698;28;45403;-90
2021/08/12 12:10:53;;;;;;;;;10.67;10.67;;;;;;;;5056846;27;48926;-91
2021/08/12 12:13:19;;;;;;;;;11.75;9.75;;;;;;;;5063116;27;45508;-91
2021/08/12 12:15:51;;;;;;;;;9.75;8.75;;;;;;;;5064438;27;46076;-93
2021/08/12 12:18:30;;;;;;;;;10.75;8.00;;;;;;;;5066835;27;45485;-88
2021/08/12 12:21:02;;;;;;;;;11.00;11.00;;;;;;;;5058513;28;48241;-94
2021/08/12 12:23:27;;;;;;;;;10.50;8.50;;;;;;;;5069333;27;45710;-93
2021/08/12 12:25:52;;;;;;;;;11.50;10.75;;;;;;;;5066570;28;45478;-87
2021/08/12 12:28:18;;;;;;;;;15.33;13.33;;;;;;;;5067095;28;45605;-85
2021/08/12 12:30:44;;;;;;;;;12.00;11.50;;;;;;;;5069273;27;46164;-84
2021/08/12 12:33:15;;;;;;;;;11.50;10.00;;;;;;;;5038593;28;45445;-83
2021/08/12 12:35:43;;;;;;;;;11.75;11.75;;;;;;;;5058182;28;45482;-81
2021/08/12 12:38:10;;;;;;;;;10.75;10.75;;;;;;;;5060048;27;45999;-84
2021/08/12 12:40:36;;;;;;;;;13.00;9.25;;;;;;;;5055108;28;45879;-86
2021/08/12 12:43:02;;;;;;;;;11.75;11.75;;;;;;;;5059103;28;45446;-88
2021/08/12 12:45:27;;;;;;;;;13.50;13.00;;;;;;;;5041409;27;45375;-91
2021/08/12 12:48:04;;;;;;;;;13.50;13.00;;;;;;;;5065943;27;45477;-84
2021/08/12 12:50:39;;;;;;;;;13.00;10.50;;;;;;;;5063787;27;45654;-88
2021/08/12 12:53:04;;;;;;;;;10.00;10.00;;;;;;;;5066411;27;45403;-81
2021/08/12 12:55:34;;;;;;;;;14.67;12.00;;;;;;;;5056560;27;45382;-84
2021/08/12 12:58:10;;;;;;;;;11.00;10.50;;;;;;;;5058530;27;45752;-80
2021/08/12 13:00:35;;;;;;;;;12.75;11.75;;;;;;;;5050231;28;46362;-79
2021/08/12 13:03:01;;;;;;;;;14.33;11.67;;;;;;;;5058568;28;45440;-79
2021/08/12 13:05:45;;;;;;;;;19.33;14.00;;;;;;;;5057634;28;45368;-79
2021/08/12 13:08:11;;;;;;;;;13.50;12.75;;;;;;;;5056510;28;45507;-79
2021/08/12 13:10:36;;;;;;;;;12.75;12.25;;;;;;;;5060037;28;47161;-79
2021/08/12 13:13:02;;;;;;;;;13.00;12.00;;;;;;;;5071057;28;45501;-79
2021/08/12 13:15:27;;;;;;;;;14.25;13.75;;;;;;;;5064841;28;45541;-79
2021/08/12 13:18:05;;;;;;;;;10.50;9.75;;;;;;;;5070707;28;45450;-79
2021/08/12 13:20:38;;;;;;;;;13.00;12.25;;;;;;;;5060631;27;45497;-79
2021/08/12 13:23:04;;;;;;;;;12.00;10.00;;;;;;;;5055329;28;45882;-79
2021/08/12 13:25:29;;;;;;;;;14.75;11.75;;;;;;;;5059712;28;45374;-79
2021/08/12 13:27:56;;;;;;;;;14.00;11.33;;;;;;;;5071398;28;45622;-79
2021/08/12 13:30:27;;;;;;;;;13.50;11.75;;;;;;;;5064992;27;45698;-79
2021/08/12 13:32:53;;;;;;;;;12.00;9.75;;;;;;;;5069429;27;45478;-79
2021/08/12 13:35:18;;;;;;;;;11.25;7.50;;;;;;;;5060430;28;45548;-79
2021/08/12 13:37:43;;;;;;;;;10.33;9.67;;;;;;;;5061875;28;45462;-79
2021/08/12 13:40:08;;;;;;;;;13.33;13.33;;;;;;;;5065862;27;47341;-79
2021/08/12 13:42:33;;;;;;;;;13.25;12.00;;;;;;;;5067932;27;45982;-79
2021/08/12 13:44:59;;;;;;;;;12.67;12.00;;;;;;;;5067678;28;45507;-79
2021/08/12 13:47:24;;;;;;;;;12.75;11.75;;;;;;;;5067228;28;45502;-79
2021/08/12 13:49:49;;;;;;;;;12.00;11.25;;;;;;;;5066645;28;45422;-79
2021/08/12 13:52:14;;;;;;;;;10.33;10.00;;;;;;;;5052202;28;46791;-79
2021/08/12 13:54:41;;;;;;;;;12.00;12.00;;;;;;;;5052830;28;45581;-80
2021/08/12 13:57:07;;;;;;;;;13.75;11.25;;;;;;;;5065027;27;45517;-79
2021/08/12 13:59:32;;;;;;;;;10.25;10.25;;;;;;;;5066854;28;46161;-80
2021/08/12 14:01:57;;;;;;;;;11.00;10.25;;;;;;;;5063867;28;45578;-80
2021/08/12 14:04:23;;;;;;;;;16.00;10.00;;;;;;;;5066444;27;45643;-79
2021/08/12 14:06:48;;;;;;;;;13.00;12.75;;;;;;;;5059438;28;45435;-79
2021/08/12 14:09:14;;;;;;;;;11.25;9.00;;;;;;;;5065552;28;46458;-79
2021/08/12 14:11:40;;;;;;;;;13.25;12.50;;;;;;;;5067420;28;45878;-79
2021/08/12 14:14:06;;;;;;;;;13.25;12.00;;;;;;;;5063642;28;45489;-79
2021/08/12 14:16:31;;;;;;;;;13.00;10.00;;;;;;;;5065951;28;45345;-79
2021/08/12 14:18:56;;;;;;;;;9.25;9.00;;;;;;;;5070908;28;45653;-79
2021/08/12 14:21:22;;;;;;;;;10.33;10.33;;;;;;;;5062826;27;45709;-79